Time;durP1;ratioP1;P1;durP2;ratioP2;P2;SDS_P1;SDS_P2;PMS_P1;PMS_P2;Temp;Humidity;BMP_temperature;BMP_pressure;BME280_temperature;BME280_humidity;BME280_pressure;Samples;Min_cycle;Max_cycle;Signal;HPM_P1;HPM_P2
2023/03/07 00:01:31;;;;;;;30.52;10.70;;;2.70;99.90;;;;;;5017037;28;20049;-66
2023/03/07 00:03:58;;;;;;;26.63;11.18;;;3.20;99.90;;;;;;5033271;28;20504;-66
2023/03/07 00:06:24;;;;;;;29.38;11.20;;;3.20;99.90;;;;;;5029890;28;20053;-67
2023/03/07 00:08:51;;;;;;;27.13;10.25;;;3.30;99.90;;;;;;5022748;28;20056;-67
2023/03/07 00:11:17;;;;;;;23.98;9.80;;;2.80;99.90;;;;;;5042287;28;20059;-65
2023/03/07 00:13:42;;;;;;;28.20;10.35;;;2.80;99.90;;;;;;5017945;28;20045;-67
2023/03/07 00:16:13;;;;;;;27.35;9.45;;;2.90;99.90;;;;;;5038530;28;20039;-67
2023/03/07 00:18:38;;;;;;;23.40;8.85;;;3.30;99.90;;;;;;5038828;28;20626;-65
2023/03/07 00:21:06;;;;;;;20.80;8.52;;;3.00;99.90;;;;;;5026160;28;20045;-66
2023/03/07 00:23:37;;;;;;;23.65;9.25;;;2.80;99.90;;;;;;5042229;28;20028;-68
2023/03/07 00:26:09;;;;;;;21.70;7.85;;;3.30;99.90;;;;;;5038427;28;20045;-65
2023/03/07 00:28:35;;;;;;;20.75;7.97;;;3.30;99.90;;;;;;5045201;28;20044;-66
2023/03/07 00:31:07;;;;;;;15.40;7.00;;;2.90;99.90;;;;;;5046404;28;20045;-64
2023/03/07 00:33:33;;;;;;;14.93;6.20;;;2.90;99.90;;;;;;5041913;28;20124;-66
2023/03/07 00:36:01;;;;;;;13.55;5.43;;;3.20;99.90;;;;;;5036382;28;20040;-68
2023/03/07 00:38:28;;;;;;;14.90;6.45;;;3.30;99.90;;;;;;5036234;28;20043;-68
2023/03/07 00:40:58;;;;;;;12.73;5.18;;;3.40;99.90;;;;;;5043578;28;20496;-66
2023/03/07 00:43:24;;;;;;;15.35;5.35;;;2.90;99.90;;;;;;5048585;28;20436;-69
2023/03/07 00:45:49;;;;;;;14.05;5.28;;;3.40;99.90;;;;;;5029758;28;20087;-68
2023/03/07 00:48:17;;;;;;;10.45;3.45;;;3.50;99.90;;;;;;5042126;28;20045;-68
2023/03/07 00:50:42;;;;;;;6.95;3.20;;;3.40;99.90;;;;;;5030100;28;20033;-67
2023/03/07 00:53:08;;;;;;;5.43;3.00;;;3.50;99.90;;;;;;5030281;28;20025;-65
2023/03/07 00:55:33;;;;;;;7.18;2.60;;;3.30;99.90;;;;;;5029980;28;20099;-67
2023/03/07 00:57:59;;;;;;;8.10;2.95;;;2.80;99.90;;;;;;5049392;28;20045;-67
2023/03/07 01:00:24;;;;;;;7.18;2.47;;;3.10;99.90;;;;;;4993530;28;1033837;-68
2023/03/07 01:02:50;;;;;;;5.35;2.63;;;3.30;99.90;;;;;;5046417;28;20057;-67
2023/03/07 01:05:16;;;;;;;3.33;1.50;;;3.20;99.90;;;;;;5050965;28;20084;-68
2023/03/07 01:07:41;;;;;;;2.17;1.30;;;3.20;99.90;;;;;;5054493;28;20044;-67
2023/03/07 01:10:08;;;;;;;3.55;1.50;;;3.00;99.90;;;;;;5052539;28;20065;-67
2023/03/07 01:12:33;;;;;;;2.67;1.33;;;2.50;99.90;;;;;;5043248;28;20511;-67
2023/03/07 01:14:59;;;;;;;4.35;1.67;;;2.70;99.90;;;;;;5027062;28;20065;-67
2023/03/07 01:17:24;;;;;;;5.05;1.65;;;2.70;99.90;;;;;;5043163;28;20446;-66
2023/03/07 01:19:50;;;;;;;5.72;2.13;;;2.50;99.90;;;;;;5036219;28;20234;-67
2023/03/07 01:22:15;;;;;;;3.38;1.73;;;2.70;99.90;;;;;;5048593;28;20049;-66
2023/03/07 01:24:41;;;;;;;6.10;2.38;;;2.70;99.90;;;;;;5043403;28;20068;-67
2023/03/07 01:27:06;;;;;;;3.03;1.65;;;2.70;99.90;;;;;;5021111;28;20098;-67
2023/03/07 01:29:32;;;;;;;4.53;1.80;;;3.00;99.90;;;;;;5051234;28;20041;-66
2023/03/07 01:31:58;;;;;;;5.50;1.67;;;2.60;99.90;;;;;;5047349;28;20042;-66
2023/03/07 01:34:23;;;;;;;4.05;1.58;;;3.00;99.90;;;;;;5050336;28;20041;-68
2023/03/07 01:36:49;;;;;;;5.40;1.45;;;2.60;99.90;;;;;;5051342;28;20033;-66
2023/03/07 01:39:16;;;;;;;3.13;1.33;;;3.00;99.90;;;;;;5022145;28;20120;-67
2023/03/07 01:41:42;;;;;;;7.53;1.67;;;3.20;99.90;;;;;;5047245;28;20048;-67
2023/03/07 01:44:53;;;;;;;5.25;1.90;;;2.90;99.90;;;;;;5051137;28;20052;-66
2023/03/07 01:47:18;;;;;;;;;;;2.90;99.90;;;;;;5026452;28;20096;-67
2023/03/07 01:49:45;;;;;;;4.13;1.30;;;3.10;99.90;;;;;;5022636;28;19972;-64
2023/03/07 01:52:19;;;;;;;4.55;1.48;;;2.90;99.90;;;;;;5033996;28;20037;-67
2023/03/07 01:54:50;;;;;;;7.00;1.65;;;3.00;99.90;;;;;;5039199;28;20052;-64
2023/03/07 01:57:21;;;;;;;5.78;1.42;;;2.50;99.90;;;;;;5052681;28;20527;-67
2023/03/07 01:59:53;;;;;;;5.43;1.77;;;2.70;99.90;;;;;;5052328;28;20053;-68
2023/03/07 02:02:21;;;;;;;5.63;1.40;;;2.80;99.90;;;;;;5043351;28;20477;-68
2023/03/07 02:05:05;;;;;;;8.88;1.73;;;2.80;99.90;;;;;;5044611;28;20046;-65
2023/03/07 02:07:37;;;;;;;9.70;1.60;;;2.60;99.90;;;;;;5046055;28;20496;-67
2023/03/07 02:10:05;;;;;;;9.60;1.70;;;2.40;99.90;;;;;;5044215;28;20036;-66
2023/03/07 02:12:32;;;;;;;5.28;1.73;;;2.60;99.90;;;;;;5052409;28;20032;-66
2023/03/07 02:14:57;;;;;;;5.38;1.80;;;3.00;99.90;;;;;;5053734;28;20037;-67
2023/03/07 02:17:23;;;;;;;7.88;2.03;;;3.00;99.90;;;;;;5043194;28;20044;-69
2023/03/07 02:20:07;;;;;;;8.23;2.05;;;2.50;99.90;;;;;;5045432;28;20041;-68
2023/03/07 02:22:33;;;;;;;10.32;1.95;;;2.70;99.90;;;;;;5032984;28;20048;-66
2023/03/07 02:25:09;;;;;;;4.75;1.83;;;2.60;99.90;;;;;;5040816;28;20091;-68
2023/03/07 02:27:36;;;;;;;7.63;1.90;;;2.80;99.90;;;;;;5046282;28;20049;-67
2023/03/07 02:30:03;;;;;;;7.47;2.13;;;2.60;99.90;;;;;;5037678;28;20037;-67
2023/03/07 02:32:29;;;;;;;7.93;1.77;;;2.80;99.90;;;;;;5039595;28;20095;-68
2023/03/07 02:34:54;;;;;;;10.40;2.00;;;3.10;99.90;;;;;;5045349;28;20045;-68
2023/03/07 02:37:34;;;;;;;9.15;1.80;;;2.70;99.90;;;;;;5042412;28;20495;-68
2023/03/07 02:40:05;;;;;;;6.80;1.90;;;2.80;99.90;;;;;;5049275;28;20041;-66
2023/03/07 02:42:34;;;;;;;5.93;1.65;;;2.60;99.90;;;;;;5045599;28;20051;-68
2023/03/07 02:45:06;;;;;;;7.88;1.75;;;3.00;99.90;;;;;;5036326;28;20098;-68
2023/03/07 02:47:31;;;;;;;5.55;1.98;;;2.50;99.90;;;;;;5043954;28;20605;-68
2023/03/07 02:49:57;;;;;;;8.35;1.90;;;2.50;99.90;;;;;;5034704;28;20046;-67
2023/03/07 02:52:23;;;;;;;7.13;1.55;;;2.60;99.90;;;;;;5040383;28;20115;-68
2023/03/07 02:54:49;;;;;;;11.20;1.80;;;2.40;99.90;;;;;;5036078;28;20548;-68
2023/03/07 02:57:15;;;;;;;7.90;1.90;;;2.70;99.90;;;;;;5047224;28;20124;-67
2023/03/07 02:59:40;;;;;;;5.38;1.70;;;2.50;99.90;;;;;;5051939;28;20107;-68
2023/03/07 03:02:06;;;;;;;8.80;1.80;;;2.30;99.90;;;;;;5048310;28;20697;-66
2023/03/07 03:04:32;;;;;;;8.77;2.55;;;2.30;99.90;;;;;;5038623;28;20099;-68
2023/03/07 03:06:57;;;;;;;8.00;1.67;;;2.20;99.90;;;;;;5040881;28;20041;-67
2023/03/07 03:09:23;;;;;;;6.65;1.60;;;2.50;99.90;;;;;;5047443;28;20045;-68
2023/03/07 03:11:48;;;;;;;7.78;1.75;;;2.60;99.90;;;;;;5046075;28;20052;-67
2023/03/07 03:14:14;;;;;;;5.10;1.85;;;2.60;99.90;;;;;;5034094;28;20041;-67
2023/03/07 03:16:40;;;;;;;8.25;1.73;;;2.30;99.90;;;;;;5047170;28;20044;-67
2023/03/07 03:19:06;;;;;;;11.23;2.25;;;2.30;99.90;;;;;;5049691;28;20097;-66
2023/03/07 03:21:32;;;;;;;6.47;1.40;;;2.00;99.90;;;;;;5049552;28;20052;-67
2023/03/07 03:23:57;;;;;;;7.95;1.58;;;2.10;99.90;;;;;;5046386;28;20041;-68
2023/03/07 03:26:23;;;;;;;10.93;1.60;;;2.10;99.90;;;;;;5032480;28;20038;-67
2023/03/07 03:28:49;;;;;;;8.65;1.98;;;2.00;99.90;;;;;;5040775;28;20041;-67
2023/03/07 03:31:15;;;;;;;12.25;1.65;;;2.00;99.90;;;;;;5036260;28;20052;-67
2023/03/07 03:33:45;;;;;;;4.35;1.58;;;2.10;99.90;;;;;;5044622;28;20041;-66
2023/03/07 03:36:15;;;;;;;;;;;2.50;99.90;;;;;;5040938;28;20516;-66
2023/03/07 03:38:40;;;;;;;9.10;1.55;;;2.00;99.90;;;;;;5039013;28;20069;-68
2023/03/07 03:41:10;;;;;;;7.85;1.55;;;2.00;99.90;;;;;;5041647;28;20120;-67
2023/03/07 03:43:35;;;;;;;7.03;1.42;;;2.40;99.90;;;;;;5023218;28;20447;-67
2023/03/07 03:46:02;;;;;;;8.02;1.50;;;2.40;99.90;;;;;;5040431;28;20049;-67
2023/03/07 03:48:28;;;;;;;8.57;1.17;;;2.10;99.90;;;;;;5036461;28;22417;-68
2023/03/07 03:51:00;;;;;;;8.93;2.75;;;1.90;99.90;;;;;;5045496;28;20047;-67
2023/03/07 03:53:26;;;;;;;5.82;1.30;;;1.90;99.90;;;;;;5035766;28;20128;-66
2023/03/07 03:55:51;;;;;;;10.32;1.42;;;2.00;99.90;;;;;;5029561;28;20038;-68
2023/03/07 03:58:17;;;;;;;8.23;1.38;;;2.20;99.90;;;;;;5038288;28;20145;-66
2023/03/07 04:00:43;;;;;;;8.75;1.38;;;1.80;99.90;;;;;;5048893;28;20111;-67
2023/03/07 04:03:09;;;;;;;9.45;1.77;;;2.00;99.90;;;;;;5036233;28;20037;-67
2023/03/07 04:05:34;;;;;;;12.10;1.50;;;2.00;99.90;;;;;;5019995;28;20481;-67
2023/03/07 04:08:00;;;;;;;10.13;1.50;;;1.90;99.90;;;;;;5037601;28;20033;-68
2023/03/07 04:10:26;;;;;;;7.18;1.50;;;1.80;99.90;;;;;;5037687;28;20130;-66
2023/03/07 04:12:51;;;;;;;7.00;1.60;;;2.10;99.90;;;;;;5012008;28;20389;-66
2023/03/07 04:15:17;;;;;;;5.53;1.40;;;2.10;99.90;;;;;;5037747;28;20033;-66
2023/03/07 04:17:42;;;;;;;6.57;1.30;;;2.10;99.90;;;;;;5034697;28;20041;-66
2023/03/07 04:20:13;;;;;;;9.27;1.25;;;2.10;99.90;;;;;;5031022;28;20071;-66
2023/03/07 04:22:39;;;;;;;9.38;1.80;;;2.00;99.90;;;;;;5049571;28;20080;-67
2023/03/07 04:25:05;;;;;;;6.40;1.40;;;2.00;99.90;;;;;;5048493;28;20436;-66
2023/03/07 04:27:33;;;;;;;6.97;1.38;;;1.60;99.90;;;;;;5040737;28;20079;-65
2023/03/07 04:29:58;;;;;;;7.25;1.63;;;1.90;99.90;;;;;;5034291;28;20041;-67
2023/03/07 04:32:24;;;;;;;8.98;1.33;;;1.90;99.90;;;;;;5046802;28;20041;-65
2023/03/07 04:34:49;;;;;;;6.53;1.27;;;1.50;99.90;;;;;;5045755;28;20140;-66
2023/03/07 04:37:15;;;;;;;6.22;1.33;;;1.90;99.90;;;;;;5038022;28;20072;-66
2023/03/07 04:39:40;;;;;;;10.48;1.45;;;1.80;99.90;;;;;;5042634;28;20053;-66
2023/03/07 04:42:06;;;;;;;2.95;1.13;;;1.50;99.90;;;;;;5047500;28;20036;-66
2023/03/07 04:44:32;;;;;;;9.80;1.50;;;1.60;99.90;;;;;;5020752;28;20029;-66
2023/03/07 04:46:57;;;;;;;3.47;1.15;;;1.80;99.90;;;;;;5040089;28;20382;-67
2023/03/07 04:49:23;;;;;;;10.05;1.27;;;1.50;99.90;;;;;;5020693;28;20376;-67
2023/03/07 04:51:48;;;;;;;5.00;1.10;;;1.50;99.90;;;;;;5023105;28;20037;-66
2023/03/07 04:54:14;;;;;;;8.48;1.45;;;1.40;99.90;;;;;;5041938;28;20389;-66
2023/03/07 04:56:40;;;;;;;8.80;1.25;;;1.40;99.90;;;;;;5044131;28;20044;-66
2023/03/07 04:59:05;;;;;;;6.45;1.15;;;1.80;99.90;;;;;;5046039;28;20053;-67
2023/03/07 05:01:31;;;;;;;10.70;1.95;;;1.50;99.90;;;;;;5040724;28;20052;-67
2023/03/07 05:03:56;;;;;;;5.75;1.30;;;1.60;99.90;;;;;;5032040;28;20566;-67
2023/03/07 05:06:22;;;;;;;7.28;1.08;;;1.40;99.90;;;;;;5041129;28;20035;-66
2023/03/07 05:08:48;;;;;;;7.40;1.02;;;1.70;99.90;;;;;;5044936;28;20088;-66
2023/03/07 05:11:13;;;;;;;8.75;1.50;;;1.80;99.90;;;;;;5035675;28;20048;-66
2023/03/07 05:13:39;;;;;;;7.18;1.00;;;1.80;99.90;;;;;;5044107;28;20346;-67
2023/03/07 05:16:05;;;;;;;4.28;1.10;;;1.80;99.90;;;;;;5036939;28;20048;-67
2023/03/07 05:18:30;;;;;;;4.50;1.10;;;1.60;99.90;;;;;;5049186;28;20111;-66
2023/03/07 05:20:56;;;;;;;9.55;1.60;;;1.80;99.90;;;;;;5035269;28;20037;-66
2023/03/07 05:23:21;;;;;;;7.15;1.23;;;1.50;99.90;;;;;;5047578;28;20044;-67
2023/03/07 05:25:47;;;;;;;5.18;1.17;;;1.60;99.90;;;;;;5041489;28;20041;-67
2023/03/07 05:28:15;;;;;;;8.43;1.25;;;1.80;99.90;;;;;;5031068;28;20043;-67
2023/03/07 05:30:41;;;;;;;10.00;1.52;;;1.70;99.90;;;;;;5042684;28;20037;-66
2023/03/07 05:33:07;;;;;;;7.65;1.20;;;1.70;99.90;;;;;;5042872;28;20076;-65
2023/03/07 05:35:33;;;;;;;10.27;1.05;;;1.50;99.90;;;;;;5044826;28;20122;-66
2023/03/07 05:37:59;;;;;;;7.13;1.25;;;1.60;99.90;;;;;;5033894;28;20052;-65
2023/03/07 05:40:24;;;;;;;6.40;1.20;;;1.50;99.90;;;;;;5040853;28;20034;-67
2023/03/07 05:42:50;;;;;;;7.43;1.42;;;1.50;99.90;;;;;;5045543;28;20031;-67
2023/03/07 05:45:15;;;;;;;8.13;1.27;;;1.40;99.90;;;;;;5037056;28;20045;-66
2023/03/07 05:47:41;;;;;;;5.47;1.35;;;1.50;99.90;;;;;;5042176;28;20041;-66
2023/03/07 05:50:08;;;;;;;7.95;1.52;;;1.50;99.90;;;;;;5037552;28;20037;-67
2023/03/07 05:52:33;;;;;;;6.18;1.02;;;1.70;99.90;;;;;;5039718;28;20091;-67
2023/03/07 05:54:59;;;;;;;17.27;2.33;;;1.70;99.90;;;;;;5038015;28;20033;-67
2023/03/07 05:57:24;;;;;;;5.60;0.95;;;1.60;99.90;;;;;;5039302;28;20029;-67
2023/03/07 05:59:50;;;;;;;8.93;1.02;;;1.80;99.90;;;;;;5042478;28;20759;-66
2023/03/07 06:02:16;;;;;;;8.57;1.27;;;1.50;99.90;;;;;;5037814;28;20045;-66
2023/03/07 06:04:41;;;;;;;8.00;1.35;;;1.60;99.90;;;;;;5037961;28;20048;-66
2023/03/07 06:07:07;;;;;;;12.50;1.50;;;1.80;99.90;;;;;;5039869;28;20036;-65
2023/03/07 06:09:33;;;;;;;8.15;1.75;;;1.80;99.90;;;;;;5049319;28;20047;-67
2023/03/07 06:11:58;;;;;;;10.27;1.15;;;1.60;99.90;;;;;;5040615;28;20128;-66
2023/03/07 06:14:24;;;;;;;2.97;0.90;;;1.60;99.90;;;;;;5015368;28;20130;-66
2023/03/07 06:16:50;;;;;;;11.23;1.63;;;1.90;99.90;;;;;;5046704;28;21159;-66
2023/03/07 06:19:15;;;;;;;7.68;2.17;;;1.70;99.90;;;;;;5049584;28;20044;-65
2023/03/07 06:21:42;;;;;;;8.50;1.33;;;1.60;99.90;;;;;;5022102;28;20099;-66
2023/03/07 06:24:08;;;;;;;9.80;1.33;;;1.90;99.90;;;;;;5041368;28;20045;-65
2023/03/07 06:26:33;;;;;;;8.77;1.55;;;1.80;99.90;;;;;;5039323;28;20033;-65
2023/03/07 06:29:00;;;;;;;10.82;1.73;;;2.00;99.90;;;;;;5053676;28;20103;-66
2023/03/07 06:31:26;;;;;;;6.10;1.50;;;1.70;99.90;;;;;;5050486;28;20048;-65
2023/03/07 06:33:52;;;;;;;8.20;1.20;;;1.80;99.90;;;;;;5050884;28;20085;-66
2023/03/07 06:36:18;;;;;;;6.05;1.25;;;1.80;99.90;;;;;;5027085;28;20033;-65
2023/03/07 06:38:44;;;;;;;7.03;1.42;;;2.00;99.90;;;;;;5052425;28;20048;-65
2023/03/07 06:41:10;;;;;;;5.85;1.52;;;2.00;99.90;;;;;;5033487;28;20056;-66
2023/03/07 06:43:36;;;;;;;8.68;1.25;;;2.10;99.90;;;;;;5051327;28;20041;-66
2023/03/07 06:46:02;;;;;;;6.40;2.45;;;2.10;99.90;;;;;;5042681;28;20144;-67
2023/03/07 06:48:27;;;;;;;8.05;1.98;;;2.20;99.90;;;;;;5042539;28;20487;-67
2023/03/07 06:50:53;;;;;;;8.07;1.27;;;2.10;99.90;;;;;;5037879;28;20132;-67
2023/03/07 06:53:19;;;;;;;8.02;1.40;;;2.10;99.90;;;;;;5018862;28;20128;-66
2023/03/07 06:55:51;;;;;;;9.02;1.45;;;2.20;99.90;;;;;;5044639;28;20052;-66
2023/03/07 06:58:17;;;;;;;4.05;1.17;;;2.20;99.90;;;;;;5050598;28;20111;-66
2023/03/07 07:00:43;;;;;;;2.95;1.00;;;2.00;99.90;;;;;;5046739;28;20123;-66
2023/03/07 07:03:13;;;;;;;8.43;0.90;;;2.10;99.90;;;;;;5029998;28;20053;-66
2023/03/07 07:05:38;;;;;;;7.95;1.10;;;2.20;99.90;;;;;;5045829;28;20052;-67
2023/03/07 07:08:04;;;;;;;4.30;1.02;;;2.20;99.90;;;;;;5035279;28;20048;-66
2023/03/07 07:10:30;;;;;;;9.60;1.17;;;2.10;99.90;;;;;;5034408;28;20072;-66
2023/03/07 07:12:56;;;;;;;6.57;1.10;;;2.20;99.90;;;;;;5027887;28;20435;-67
2023/03/07 07:15:23;;;;;;;7.15;1.67;;;2.00;99.90;;;;;;5038773;28;20045;-67
2023/03/07 07:17:50;;;;;;;9.57;1.55;;;2.10;99.90;;;;;;5043717;28;20116;-67
2023/03/07 07:20:15;;;;;;;8.85;3.35;;;2.00;99.90;;;;;;5033140;28;20052;-67
2023/03/07 07:22:41;;;;;;;5.85;1.23;;;2.20;99.90;;;;;;5021588;28;20453;-65
2023/03/07 07:25:07;;;;;;;4.20;1.30;;;2.20;99.90;;;;;;5039968;28;20110;-67
2023/03/07 07:27:33;;;;;;;7.68;1.42;;;2.00;99.90;;;;;;5044483;28;20044;-66
2023/03/07 07:29:58;;;;;;;5.68;1.60;;;2.10;99.90;;;;;;5034793;28;20048;-66
2023/03/07 07:32:24;;;;;;;6.65;1.30;;;2.10;99.90;;;;;;5041847;28;20086;-66
2023/03/07 07:34:50;;;;;;;7.95;1.92;;;2.40;99.90;;;;;;5038376;28;20082;-65
2023/03/07 07:37:15;;;;;;;3.08;1.17;;;2.10;99.90;;;;;;5022637;28;20370;-66
2023/03/07 07:39:42;;;;;;;6.97;2.72;;;2.10;99.90;;;;;;5052378;28;20049;-66
2023/03/07 07:42:09;;;;;;;8.95;2.60;;;2.20;99.90;;;;;;5039460;28;20084;-66
2023/03/07 07:44:35;;;;;;;4.78;1.77;;;2.20;99.90;;;;;;5048373;28;20041;-66
2023/03/07 07:47:00;;;;;;;7.22;1.80;;;2.20;99.90;;;;;;5012480;28;20033;-65
2023/03/07 07:49:26;;;;;;;2.92;0.90;;;2.20;99.90;;;;;;5047913;28;20045;-66
2023/03/07 07:51:52;;;;;;;4.97;1.02;;;2.50;99.90;;;;;;5037328;28;20480;-66
2023/03/07 07:54:17;;;;;;;3.90;0.90;;;2.40;99.90;;;;;;5049791;28;20036;-66
2023/03/07 07:56:43;;;;;;;5.88;1.08;;;2.30;99.90;;;;;;5033642;28;20044;-66
2023/03/07 07:59:08;;;;;;;5.85;1.10;;;2.30;99.90;;;;;;5037262;28;20063;-67
2023/03/07 08:01:34;;;;;;;3.38;0.90;;;2.30;99.90;;;;;;5038493;28;20466;-67
2023/03/07 08:04:00;;;;;;;7.90;0.90;;;2.30;99.90;;;;;;5046138;28;20052;-66
2023/03/07 08:06:27;;;;;;;7.60;1.10;;;2.30;99.90;;;;;;5036528;28;20041;-66
2023/03/07 08:08:54;;;;;;;6.35;1.27;;;2.50;99.90;;;;;;5051542;28;20045;-66
2023/03/07 08:11:21;;;;;;;7.65;1.15;;;2.40;99.90;;;;;;5040662;28;20039;-66
2023/03/07 08:13:46;;;;;;;6.32;1.10;;;2.50;99.90;;;;;;5036759;28;20044;-65
2023/03/07 08:16:15;;;;;;;4.15;1.55;;;2.40;99.90;;;;;;5037515;28;20376;-66
2023/03/07 08:18:41;;;;;;;8.10;1.85;;;2.40;99.90;;;;;;5021846;28;20043;-67
2023/03/07 08:21:07;;;;;;;7.47;1.48;;;2.50;99.90;;;;;;5024768;28;20047;-67
2023/03/07 08:23:34;;;;;;;10.52;1.35;;;2.50;99.90;;;;;;5023792;28;20045;-66
2023/03/07 08:26:05;;;;;;;7.82;1.13;;;2.20;99.90;;;;;;5038711;28;20054;-67
2023/03/07 08:28:31;;;;;;;7.57;1.65;;;2.20;99.90;;;;;;5042004;28;20036;-66
2023/03/07 08:30:56;;;;;;;4.72;0.90;;;2.30;99.90;;;;;;5050824;28;20055;-66
2023/03/07 08:33:22;;;;;;;9.90;1.10;;;2.30;99.90;;;;;;5032204;28;20040;-65
2023/03/07 08:35:48;;;;;;;3.95;0.90;;;2.40;99.90;;;;;;5036030;28;20048;-67
2023/03/07 08:38:13;;;;;;;3.65;0.70;;;2.20;99.90;;;;;;5042574;28;20037;-66
2023/03/07 08:40:39;;;;;;;2.92;0.63;;;2.20;99.90;;;;;;5047590;28;20099;-66
2023/03/07 08:43:05;;;;;;;4.82;0.80;;;2.30;99.90;;;;;;5039008;28;20124;-66
2023/03/07 08:45:30;;;;;;;3.40;0.93;;;2.30;99.90;;;;;;5039730;28;20576;-68
2023/03/07 08:47:56;;;;;;;5.70;0.98;;;2.50;99.90;;;;;;5036755;28;20038;-67
2023/03/07 08:50:24;;;;;;;5.80;0.90;;;2.40;99.90;;;;;;5047469;28;20041;-66
2023/03/07 08:52:50;;;;;;;9.05;1.45;;;2.40;99.90;;;;;;5038700;28;20025;-66
2023/03/07 08:55:16;;;;;;;5.68;1.10;;;2.60;99.90;;;;;;5041826;28;20063;-67
2023/03/07 08:57:44;;;;;;;2.55;0.73;;;2.70;99.90;;;;;;5047080;28;20037;-66
2023/03/07 09:00:11;;;;;;;6.47;1.00;;;2.60;99.90;;;;;;5050095;28;20076;-66
2023/03/07 09:02:37;;;;;;;2.40;0.55;;;2.80;99.90;;;;;;5029002;28;20152;-66
2023/03/07 09:05:03;;;;;;;3.60;0.95;;;2.60;99.90;;;;;;5036276;28;20112;-66
2023/03/07 09:07:29;;;;;;;3.15;0.80;;;2.70;99.90;;;;;;5050080;28;20056;-66
2023/03/07 09:09:54;;;;;;;3.78;0.85;;;2.80;99.90;;;;;;5042873;28;20081;-66
2023/03/07 09:12:20;;;;;;;6.55;1.10;;;2.80;99.90;;;;;;5032206;28;20508;-66
2023/03/07 09:14:45;;;;;;;3.80;0.80;;;2.90;99.90;;;;;;5035834;28;20069;-66
2023/03/07 09:17:11;;;;;;;6.88;0.82;;;2.90;99.90;;;;;;5045477;28;20052;-66
2023/03/07 09:19:36;;;;;;;3.75;0.77;;;3.00;99.90;;;;;;5018371;28;20041;-66
2023/03/07 09:22:02;;;;;;;2.22;0.70;;;3.00;99.90;;;;;;5044408;28;20037;-68
2023/03/07 09:24:28;;;;;;;4.65;0.93;;;3.20;99.90;;;;;;5045337;28;20044;-67
2023/03/07 09:26:54;;;;;;;5.20;1.23;;;3.20;99.90;;;;;;5032586;28;20084;-67
2023/03/07 09:29:19;;;;;;;4.55;0.73;;;3.20;99.90;;;;;;5052970;28;20068;-66
2023/03/07 09:31:45;;;;;;;2.05;0.73;;;3.20;99.90;;;;;;5035383;28;20041;-65
2023/03/07 09:34:11;;;;;;;5.55;0.98;;;3.30;99.90;;;;;;5049679;28;20055;-65
2023/03/07 09:36:37;;;;;;;3.40;0.90;;;3.30;99.90;;;;;;5055463;28;20033;-66
2023/03/07 09:39:03;;;;;;;3.70;0.70;;;3.20;99.90;;;;;;5054404;28;20037;-65
2023/03/07 09:41:48;;;;;;;6.10;0.70;;;3.10;99.90;;;;;;5045091;28;20087;-64
2023/03/07 09:44:21;;;;;;;3.33;1.08;;;3.20;99.90;;;;;;5042577;28;20080;-67
2023/03/07 09:47:10;;;;;;;5.43;0.88;;;3.00;99.90;;;;;;5051717;28;20444;-68
2023/03/07 09:49:47;;;;;;;2.15;0.80;;;2.80;99.90;;;;;;5024118;28;20043;-67
2023/03/07 09:52:18;;;;;;;3.75;0.70;;;2.60;99.90;;;;;;5044919;28;20041;-66
2023/03/07 09:55:12;;;;;;;6.60;1.33;;;2.40;99.90;;;;;;5034619;28;20052;-65
2023/03/07 09:57:48;;;;;;;1.95;0.70;;;2.00;99.90;;;;;;5051252;28;20037;-65
2023/03/07 10:00:30;;;;;;;1.88;0.60;;;1.90;99.90;;;;;;5053431;28;20137;-65
2023/03/07 10:03:15;;;;;;;2.75;0.60;;;1.90;99.90;;;;;;5045424;28;20060;-65
2023/03/07 10:05:45;;;;;;;3.38;0.80;;;1.60;99.90;;;;;;5035217;28;20956;-64
2023/03/07 10:08:20;;;;;;;4.93;1.08;;;1.50;99.90;;;;;;5046247;28;20432;-66
2023/03/07 10:10:57;;;;;;;5.03;1.00;;;1.60;99.90;;;;;;5039345;28;20448;-65
2023/03/07 10:13:37;;;;;;;5.47;1.20;;;1.80;99.90;;;;;;5016653;28;20119;-65
2023/03/07 10:16:17;;;;;;;3.55;1.15;;;1.90;99.90;;;;;;5031189;28;20072;-66
2023/03/07 10:18:54;;;;;;;5.88;1.15;;;1.90;99.90;;;;;;5030961;28;20040;-65
2023/03/07 10:21:47;;;;;;;6.18;1.08;;;2.10;99.90;;;;;;5043970;28;20077;-65
2023/03/07 10:24:27;;;;;;;5.18;1.63;;;2.10;99.90;;;;;;5034312;28;20042;-66
2023/03/07 10:27:08;;;;;;;14.10;1.75;;;2.20;99.90;;;;;;5031472;28;20124;-66
2023/03/07 10:29:46;;;;;;;5.13;1.10;;;2.30;99.90;;;;;;5050184;28;20419;-66
2023/03/07 10:32:36;;;;;;;5.85;1.50;;;2.50;99.90;;;;;;5019663;28;20048;-66
2023/03/07 10:35:16;;;;;;;4.35;1.33;;;2.60;99.90;;;;;;5031162;28;20045;-66
2023/03/07 10:37:50;;;;;;;3.10;1.08;;;2.70;99.90;;;;;;5041910;28;20037;-66
2023/03/07 10:40:30;;;;;;;8.23;1.23;;;2.80;99.90;;;;;;5034416;28;20123;-65
2023/03/07 10:42:57;;;;;;;3.47;1.05;;;2.80;99.90;;;;;;5048727;28;20044;-66
2023/03/07 10:45:26;;;;;;;7.00;1.73;;;3.00;99.90;;;;;;5048173;28;20538;-66
2023/03/07 10:47:51;;;;;;;9.10;1.63;;;3.10;99.90;;;;;;5040722;28;20415;-66
2023/03/07 10:50:40;;;;;;;6.75;1.15;;;3.30;99.90;;;;;;5033252;28;20042;-65
2023/03/07 10:53:20;;;;;;;10.70;1.27;;;3.50;99.90;;;;;;5043813;28;20041;-66
2023/03/07 10:55:45;;;;;;;7.57;1.13;;;3.60;99.90;;;;;;5045077;28;20061;-64
2023/03/07 10:58:25;;;;;;;5.43;1.25;;;3.70;99.90;;;;;;5048952;28;20392;-66
2023/03/07 11:01:09;;;;;;;5.68;1.20;;;3.80;99.90;;;;;;5048638;28;20583;-65
2023/03/07 11:04:05;;;;;;;7.00;1.08;;;4.00;99.90;;;;;;5038846;28;20045;-65
2023/03/07 11:06:43;;;;;;;14.13;1.67;;;4.20;99.90;;;;;;5038747;28;20056;-64
2023/03/07 11:09:13;;;;;;;8.23;1.65;;;4.20;99.90;;;;;;5032277;28;20171;-65
2023/03/07 11:11:38;;;;;;;9.00;1.42;;;4.40;99.90;;;;;;5033457;28;20049;-65
2023/03/07 11:14:06;;;;;;;7.72;1.23;;;4.50;99.90;;;;;;5032742;28;20037;-65
2023/03/07 11:16:31;;;;;;;8.02;1.50;;;4.60;99.90;;;;;;5044074;28;20409;-66
2023/03/07 11:18:57;;;;;;;8.27;1.58;;;4.70;99.90;;;;;;5042558;28;20048;-65
2023/03/07 11:21:34;;;;;;;4.43;1.95;;;4.80;99.90;;;;;;5040461;28;20025;-65
2023/03/07 11:24:22;;;;;;;5.55;1.05;;;4.90;99.90;;;;;;5046182;28;20040;-65
2023/03/07 11:26:53;;;;;;;5.75;1.17;;;4.90;99.90;;;;;;5046921;28;20045;-66
2023/03/07 11:29:18;;;;;;;;;;;5.00;99.90;;;;;;5035521;28;20049;-65
2023/03/07 11:32:10;;;;;;;8.25;1.50;;;5.00;99.90;;;;;;5040834;28;20547;-67
2023/03/07 11:34:43;;;;;;;13.13;1.70;;;5.00;99.90;;;;;;5040478;28;20040;-66
2023/03/07 11:37:33;;;;;;;7.72;1.23;;;5.10;99.90;;;;;;5031355;28;20037;-66
2023/03/07 11:40:20;;;;;;;5.68;1.20;;;5.30;99.90;;;;;;5033914;28;20077;-65
2023/03/07 11:43:04;;;;;;;5.15;0.98;;;5.40;99.90;;;;;;5035748;28;20049;-67
2023/03/07 11:45:44;;;;;;;9.98;1.75;;;5.20;99.90;;;;;;5046482;28;20033;-67
2023/03/07 11:48:26;;;;;;;5.43;1.23;;;5.30;99.90;;;;;;5038211;28;20470;-67
2023/03/07 11:50:58;;;;;;;4.38;1.08;;;5.20;99.90;;;;;;5045702;28;20134;-66
2023/03/07 11:53:31;;;;;;;7.82;1.42;;;5.20;99.90;;;;;;5030223;28;20033;-66
2023/03/07 11:56:14;;;;;;;5.55;1.33;;;5.30;99.90;;;;;;5030940;28;20853;-66
2023/03/07 11:58:46;;;;;;;5.75;1.20;;;5.50;99.90;;;;;;5044055;28;20440;-66
2023/03/07 12:01:26;;;;;;;5.72;1.50;;;5.20;99.90;;;;;;5034720;28;20045;-67
2023/03/07 12:04:10;;;;;;;2.17;0.90;;;5.30;99.90;;;;;;5044061;28;20055;-67
2023/03/07 12:06:55;;;;;;;8.77;2.28;;;5.50;99.90;;;;;;5031655;28;20490;-66
2023/03/07 12:09:38;;;;;;;5.32;1.05;;;5.50;99.90;;;;;;5031444;28;20401;-67
2023/03/07 12:12:15;;;;;;;3.92;0.77;;;5.30;99.90;;;;;;5045400;28;20079;-66
2023/03/07 12:15:24;;;;;;;5.38;0.90;;;5.20;99.90;;;;;;5045952;28;20037;-67
2023/03/07 12:18:45;;;;;;;3.92;0.75;;;5.10;99.90;;;;;;5041182;28;20050;-66
2023/03/07 12:21:32;;;;;;;3.63;1.00;;;5.20;99.90;;;;;;5022074;28;20072;-67
2023/03/07 12:24:22;;;;;;;4.60;1.10;;;5.10;99.90;;;;;;5039237;28;20429;-67
2023/03/07 12:27:02;;;;;;;7.20;1.20;;;5.10;99.90;;;;;;5018734;28;20063;-66
2023/03/07 12:29:36;;;;;;;3.05;0.88;;;5.10;99.90;;;;;;5039520;28;20493;-66
2023/03/07 12:32:13;;;;;;;3.45;0.85;;;5.20;99.90;;;;;;5042954;28;20076;-66
2023/03/07 12:34:48;;;;;;;3.58;1.10;;;5.20;99.90;;;;;;5041218;28;20036;-67
2023/03/07 12:37:16;;;;;;;4.63;0.90;;;5.10;99.90;;;;;;5051427;28;20076;-67
2023/03/07 12:39:49;;;;;;;3.30;1.08;;;4.80;99.90;;;;;;5038318;28;20532;-67
2023/03/07 12:42:42;;;;;;;5.28;0.90;;;4.60;99.90;;;;;;5037102;28;20060;-67
2023/03/07 12:45:52;;;;;;;6.43;1.23;;;4.60;99.90;;;;;;5044342;28;20036;-66
2023/03/07 12:48:47;;;;;;;4.03;0.93;;;4.60;99.90;;;;;;5010464;28;20044;-66
2023/03/07 12:51:35;;;;;;;4.20;0.90;;;4.70;99.90;;;;;;5020833;28;20053;-66
2023/03/07 12:54:20;;;;;;;8.05;1.05;;;4.70;99.90;;;;;;5033895;28;20393;-66
2023/03/07 12:57:07;;;;;;;6.78;1.48;;;4.70;99.90;;;;;;5030877;28;20040;-66
2023/03/07 12:59:35;;;;;;;7.15;1.13;;;4.70;99.90;;;;;;5043856;28;20140;-67
2023/03/07 13:02:15;;;;;;;3.28;0.75;;;4.70;99.90;;;;;;5031322;28;20053;-66
2023/03/07 13:04:42;;;;;;;4.70;0.80;;;4.80;99.90;;;;;;5017045;28;20037;-66
2023/03/07 13:07:15;;;;;;;3.78;1.00;;;4.80;99.90;;;;;;5036554;28;20033;-66
2023/03/07 13:09:47;;;;;;;5.93;0.98;;;4.90;99.90;;;;;;5034981;28;20049;-66